CheckWX is a tool to help pilots better visualize weather data.  It is not intended as a substitute for an official pre-flight weather briefing.

07:48:13 UTC

KRDM TAF
Roberts Field Airport
Redmond, Oregon, USA
KRDM 200523Z 2006/2106 30010KT P6SM FEW060 FM201600 32016G24KT P6SM BKN060 FM210400 31012KT P6SM FEW060

Jun-20@
06:00 UTC

Jun-20 @ 06:00 UTC

Jun-20@
16:00 UTC

Jun-20 @ 16:00 UTC

KRDM 200523Z 2006/2106 30010KT P6SM FEW060
Wind
  • 300° at 10 KTS
Cloud Levels
  • Few at 6,000' AGL

Jun-20@
16:00 UTC

Jun-20 @ 16:00 UTC

Jun-21@
04:00 UTC

Jun-21 @ 04:00 UTC

FM201600 32016G24KT P6SM BKN060

From

From Standard forecast or significant change

Wind
  • 320° at 16 KTS
  • {Gusting to 24 KTS
Cloud Levels
  • Broken at 6,000' AGL

Jun-21@
04:00 UTC

Jun-21 @ 04:00 UTC

Jun-21@
06:00 UTC

Jun-21 @ 06:00 UTC

FM210400 31012KT P6SM FEW060

From

From Standard forecast or significant change

Wind
  • 310° at 12 KTS
Cloud Levels
  • Few at 6,000' AGL